Time;durP1;ratioP1;P1;durP2;ratioP2;P2;SDS_P1;SDS_P2;PMS_P1;PMS_P2;Temp;Humidity;BMP_temperature;BMP_pressure;BME280_temperature;BME280_humidity;BME280_pressure;Samples;Min_cycle;Max_cycle;Signal;HPM_P1;HPM_P2
2022/11/24 00:00:10;;;;;;;45.20;15.93;;;;;;;;;;5048848;28;20053;-49
2022/11/24 00:02:37;;;;;;;42.70;15.60;;;;;;;;;;5032903;28;20053;-50
2022/11/24 00:05:04;;;;;;;46.40;16.38;;;;;;;;;;5033314;28;20046;-50
2022/11/24 00:07:33;;;;;;;45.40;17.00;;;;;;;;;;5041502;28;20045;-50
2022/11/24 00:10:00;;;;;;;45.20;17.10;;;;;;;;;;5052886;28;20064;-49
2022/11/24 00:12:28;;;;;;;42.63;16.92;;;;;;;;;;5033857;28;20367;-52
2022/11/24 00:15:01;;;;;;;42.40;16.52;;;;;;;;;;5041913;28;20060;-50
2022/11/24 00:17:28;;;;;;;41.65;15.52;;;;;;;;;;5032378;28;20060;-50
2022/11/24 00:19:54;;;;;;;37.75;14.68;;;;;;;;;;5045603;28;20103;-51
2022/11/24 00:22:21;;;;;;;42.50;17.40;;;;;;;;;;5032547;28;20145;-53
2022/11/24 00:24:50;;;;;;;38.72;15.23;;;;;;;;;;5032572;28;20061;-49
2022/11/24 00:27:18;;;;;;;40.47;15.35;;;;;;;;;;5032712;28;20037;-52
2022/11/24 00:29:46;;;;;;;46.33;16.00;;;;;;;;;;5035942;28;20072;-51
2022/11/24 00:32:16;;;;;;;40.92;16.17;;;;;;;;;;5032724;28;20053;-49
2022/11/24 00:34:43;;;;;;;43.83;16.83;;;;;;;;;;5038099;28;20053;-50
2022/11/24 00:37:11;;;;;;;35.85;14.55;;;;;;;;;;5034923;28;20144;-51
2022/11/24 00:39:38;;;;;;;42.67;16.67;;;;;;;;;;5035847;28;20048;-50
2022/11/24 00:42:04;;;;;;;49.65;17.75;;;;;;;;;;5042395;28;20053;-50
2022/11/24 00:44:33;;;;;;;46.80;18.77;;;;;;;;;;5036876;28;20132;-49
2022/11/24 00:47:00;;;;;;;47.28;17.40;;;;;;;;;;5049399;28;20052;-50
2022/11/24 00:49:30;;;;;;;48.88;18.85;;;;;;;;;;5034947;28;20056;-49
2022/11/24 00:51:58;;;;;;;47.97;17.45;;;;;;;;;;5044334;28;20049;-49
2022/11/24 00:54:26;;;;;;;45.53;18.73;;;;;;;;;;5048330;28;20053;-52
2022/11/24 00:56:52;;;;;;;49.45;19.90;;;;;;;;;;5035675;28;20049;-50
2022/11/24 00:59:20;;;;;;;51.55;18.75;;;;;;;;;;5037526;28;20057;-49
2022/11/24 01:01:48;;;;;;;48.50;18.02;;;;;;;;;;5048357;28;20116;-52
2022/11/24 01:04:15;;;;;;;50.97;20.10;;;;;;;;;;5051946;28;20052;-51
2022/11/24 01:06:54;;;;;;;56.00;20.50;;;;;;;;;;5038833;28;20045;-53
2022/11/24 01:09:23;;;;;;;53.40;18.75;;;;;;;;;;5051705;28;20049;-51
2022/11/24 01:12:03;;;;;;;51.60;18.30;;;;;;;;;;5039139;28;20057;-52
2022/11/24 01:14:30;;;;;;;54.20;19.42;;;;;;;;;;5050336;28;20491;-52
2022/11/24 01:16:56;;;;;;;55.08;21.65;;;;;;;;;;5039688;28;20053;-50
2022/11/24 01:19:27;;;;;;;57.50;21.40;;;;;;;;;;5042265;28;20056;-49
2022/11/24 01:22:01;;;;;;;58.00;21.52;;;;;;;;;;5040274;28;20085;-49
2022/11/24 01:24:31;;;;;;;60.53;20.05;;;;;;;;;;5054349;28;20450;-50
2022/11/24 01:26:59;;;;;;;58.58;19.25;;;;;;;;;;5052988;28;20120;-49
2022/11/24 01:29:27;;;;;;;57.55;19.63;;;;;;;;;;5054345;28;20049;-49
2022/11/24 01:31:53;;;;;;;57.63;20.15;;;;;;;;;;5053092;28;20049;-51
2022/11/24 01:34:21;;;;;;;50.85;18.55;;;;;;;;;;5054459;28;20049;-53
2022/11/24 01:36:49;;;;;;;49.03;17.13;;;;;;;;;;5053885;28;20036;-53
2022/11/24 01:39:28;;;;;;;51.63;18.90;;;;;;;;;;5041999;28;20049;-51
2022/11/24 01:41:58;;;;;;;53.90;19.70;;;;;;;;;;5043237;28;20056;-52
2022/11/24 01:44:25;;;;;;;51.22;18.58;;;;;;;;;;5048421;28;20064;-53
2022/11/24 01:47:04;;;;;;;60.63;18.40;;;;;;;;;;5054098;28;20322;-49
2022/11/24 01:49:36;;;;;;;58.47;20.77;;;;;;;;;;5049855;28;20064;-49
2022/11/24 01:52:12;;;;;;;53.63;19.90;;;;;;;;;;5041544;28;20079;-51
2022/11/24 01:54:44;;;;;;;53.88;21.25;;;;;;;;;;5050556;28;20067;-51
2022/11/24 01:57:13;;;;;;;58.33;18.63;;;;;;;;;;5054104;28;20045;-50
2022/11/24 01:59:40;;;;;;;52.90;19.60;;;;;;;;;;5054739;28;20613;-50
2022/11/24 02:02:06;;;;;;;50.85;19.17;;;;;;;;;;5044624;28;20044;-50
2022/11/24 02:04:35;;;;;;;43.03;16.42;;;;;;;;;;5054541;28;20041;-50
2022/11/24 02:07:05;;;;;;;47.80;17.48;;;;;;;;;;5043901;28;20707;-50
2022/11/24 02:09:36;;;;;;;47.40;16.33;;;;;;;;;;5034585;28;20061;-51
2022/11/24 02:12:06;;;;;;;53.55;17.83;;;;;;;;;;5034739;28;20563;-49
2022/11/24 02:14:35;;;;;;;43.47;16.77;;;;;;;;;;5047275;28;20053;-49
2022/11/24 02:17:02;;;;;;;50.25;18.25;;;;;;;;;;5034820;28;20063;-51
2022/11/24 02:19:41;;;;;;;46.15;16.83;;;;;;;;;;5038523;28;20060;-49
2022/11/24 02:22:15;;;;;;;49.80;16.48;;;;;;;;;;5044648;28;20350;-49
2022/11/24 02:24:49;;;;;;;51.50;17.33;;;;;;;;;;5044397;28;20053;-50
2022/11/24 02:27:29;;;;;;;50.75;18.63;;;;;;;;;;5038239;28;20045;-50
2022/11/24 02:29:57;;;;;;;51.05;17.98;;;;;;;;;;5045222;28;20052;-49
2022/11/24 02:32:27;;;;;;;47.90;17.70;;;;;;;;;;5046661;28;20462;-52
2022/11/24 02:34:59;;;;;;;48.38;18.85;;;;;;;;;;5040772;28;20044;-53
2022/11/24 02:37:29;;;;;;;46.17;17.70;;;;;;;;;;5042601;28;20132;-52
2022/11/24 02:39:56;;;;;;;54.78;18.15;;;;;;;;;;5047770;28;20140;-50
2022/11/24 02:42:31;;;;;;;54.60;18.35;;;;;;;;;;5043700;28;20072;-53
2022/11/24 02:45:09;;;;;;;55.53;17.83;;;;;;;;;;5040939;28;20104;-53
2022/11/24 02:47:37;;;;;;;54.80;18.27;;;;;;;;;;5053365;28;20465;-51
2022/11/24 02:50:06;;;;;;;52.85;17.75;;;;;;;;;;5045736;28;20141;-50
2022/11/24 02:52:35;;;;;;;63.38;20.67;;;;;;;;;;5039662;28;20375;-51
2022/11/24 02:55:04;;;;;;;51.40;17.77;;;;;;;;;;5040170;28;20067;-51
2022/11/24 02:57:43;;;;;;;48.03;17.98;;;;;;;;;;5047202;28;20068;-51
2022/11/24 03:00:12;;;;;;;58.72;17.75;;;;;;;;;;5040775;28;20046;-49
2022/11/24 03:02:40;;;;;;;50.08;18.52;;;;;;;;;;5037453;28;20053;-49
2022/11/24 03:05:10;;;;;;;53.05;18.05;;;;;;;;;;5037354;28;20124;-50
2022/11/24 03:07:37;;;;;;;53.30;17.85;;;;;;;;;;5045456;28;20049;-50
2022/11/24 03:10:05;;;;;;;57.35;18.25;;;;;;;;;;5032907;28;20072;-53
2022/11/24 03:12:35;;;;;;;60.13;18.75;;;;;;;;;;5035973;28;20084;-50
2022/11/24 03:15:03;;;;;;;58.40;19.40;;;;;;;;;;5037133;28;20068;-52
2022/11/24 03:17:29;;;;;;;56.25;20.02;;;;;;;;;;5036514;28;20057;-51
2022/11/24 03:19:56;;;;;;;48.53;18.42;;;;;;;;;;5037255;28;20053;-50
2022/11/24 03:22:22;;;;;;;57.95;20.10;;;;;;;;;;5036966;28;20056;-50
2022/11/24 03:24:52;;;;;;;48.80;17.38;;;;;;;;;;5039075;28;20053;-53
2022/11/24 03:27:21;;;;;;;52.90;18.13;;;;;;;;;;5038155;28;20159;-49
2022/11/24 03:29:54;;;;;;;59.35;18.67;;;;;;;;;;5052840;28;20059;-49
2022/11/24 03:32:20;;;;;;;51.13;17.42;;;;;;;;;;5049767;28;20068;-51
2022/11/24 03:34:49;;;;;;;47.88;16.50;;;;;;;;;;5032579;28;20050;-50
2022/11/24 03:37:15;;;;;;;50.80;17.45;;;;;;;;;;5045913;28;20049;-52
2022/11/24 03:39:43;;;;;;;52.38;17.95;;;;;;;;;;5045964;28;20064;-53
2022/11/24 03:42:11;;;;;;;59.33;19.15;;;;;;;;;;5040684;28;20064;-52
2022/11/24 03:44:38;;;;;;;55.80;18.88;;;;;;;;;;5041049;28;20060;-53
2022/11/24 03:47:10;;;;;;;48.25;17.65;;;;;;;;;;5043708;28;20369;-52
2022/11/24 03:49:37;;;;;;;51.03;19.75;;;;;;;;;;5040723;28;20067;-50
2022/11/24 03:52:06;;;;;;;49.78;17.60;;;;;;;;;;5039337;28;20087;-49
2022/11/24 03:54:32;;;;;;;57.80;20.13;;;;;;;;;;5050785;28;20532;-49
2022/11/24 03:57:00;;;;;;;63.75;20.88;;;;;;;;;;5041818;28;20041;-51
2022/11/24 03:59:28;;;;;;;61.08;19.55;;;;;;;;;;5045130;28;20362;-51
2022/11/24 04:01:55;;;;;;;65.78;18.25;;;;;;;;;;5040803;28;20049;-50
2022/11/24 04:04:25;;;;;;;61.72;19.48;;;;;;;;;;5037616;28;20072;-50
2022/11/24 04:06:52;;;;;;;71.97;20.50;;;;;;;;;;5032933;28;20053;-51
2022/11/24 04:09:21;;;;;;;83.03;21.45;;;;;;;;;;5032572;28;20056;-49
2022/11/24 04:14:31;;;;;;;72.55;21.95;;;;;;;;;;5038918;28;20059;-51
2022/11/24 04:16:58;;;;;;;56.67;19.50;;;;;;;;;;5039428;28;20057;-51
2022/11/24 04:19:30;;;;;;;57.53;19.00;;;;;;;;;;5035983;28;20056;-50
2022/11/24 04:21:58;;;;;;;53.90;17.75;;;;;;;;;;5038266;28;20108;-50
2022/11/24 04:24:27;;;;;;;54.58;17.23;;;;;;;;;;5032251;28;20053;-49
2022/11/24 04:26:56;;;;;;;51.58;16.98;;;;;;;;;;5046884;28;20045;-49
2022/11/24 04:29:22;;;;;;;49.92;16.10;;;;;;;;;;5043610;28;20139;-51
2022/11/24 04:31:50;;;;;;;53.17;17.02;;;;;;;;;;5044942;28;20397;-52
2022/11/24 04:34:17;;;;;;;64.78;18.23;;;;;;;;;;5032476;28;20056;-50
2022/11/24 04:36:56;;;;;;;60.67;19.20;;;;;;;;;;5047815;28;20057;-49
2022/11/24 04:39:22;;;;;;;70.88;16.88;;;;;;;;;;5032412;28;20064;-50
2022/11/24 04:41:50;;;;;;;52.58;16.70;;;;;;;;;;5037711;28;20123;-49
2022/11/24 04:44:17;;;;;;;49.45;15.95;;;;;;;;;;5038536;28;20048;-50
2022/11/24 04:46:43;;;;;;;50.95;17.55;;;;;;;;;;5046727;28;20466;-51
2022/11/24 04:49:11;;;;;;;61.13;18.88;;;;;;;;;;5042865;28;20049;-50
2022/11/24 04:51:38;;;;;;;58.60;17.73;;;;;;;;;;5039076;28;20045;-50
2022/11/24 04:54:12;;;;;;;52.72;17.38;;;;;;;;;;5047751;28;20041;-51
2022/11/24 04:56:39;;;;;;;51.35;17.08;;;;;;;;;;5046552;28;20052;-49
2022/11/24 04:59:08;;;;;;;60.90;16.15;;;;;;;;;;5047619;28;20037;-50
2022/11/24 05:01:34;;;;;;;49.70;16.35;;;;;;;;;;5036222;28;20057;-49
2022/11/24 05:04:01;;;;;;;47.22;15.75;;;;;;;;;;5037031;28;20144;-50
2022/11/24 05:06:28;;;;;;;51.10;15.68;;;;;;;;;;5047457;28;20057;-50
2022/11/24 05:08:57;;;;;;;50.20;16.17;;;;;;;;;;5037677;28;20059;-50
2022/11/24 05:11:27;;;;;;;47.53;15.85;;;;;;;;;;5038707;28;20106;-50
2022/11/24 05:13:53;;;;;;;49.67;16.52;;;;;;;;;;5041703;28;20057;-50
2022/11/24 05:16:23;;;;;;;41.33;13.75;;;;;;;;;;5052528;28;20060;-51
2022/11/24 05:18:50;;;;;;;45.33;14.05;;;;;;;;;;5043646;28;20045;-51
2022/11/24 05:21:17;;;;;;;39.78;14.40;;;;;;;;;;5039957;28;20070;-50
2022/11/24 05:23:44;;;;;;;42.55;13.90;;;;;;;;;;5034791;28;20053;-49
2022/11/24 05:26:11;;;;;;;42.80;13.80;;;;;;;;;;5036475;28;20053;-51
2022/11/24 05:28:43;;;;;;;40.97;14.85;;;;;;;;;;5042532;28;20049;-49
2022/11/24 05:31:10;;;;;;;43.97;14.73;;;;;;;;;;5050432;28;20049;-50
2022/11/24 05:33:39;;;;;;;46.13;15.55;;;;;;;;;;5035295;28;20129;-50
2022/11/24 05:36:51;;;;;;;43.60;14.27;;;;;;;;;;5050105;28;20437;-52
2022/11/24 05:38:56;;;;;;;51.60;16.67;;;;;;;;;;5054194;28;20055;-51
2022/11/24 05:41:23;;;;;;;47.85;16.33;;;;;;;;;;5052187;28;20342;-50
2022/11/24 05:43:53;;;;;;;45.08;15.00;;;;;;;;;;5050464;28;20049;-53
2022/11/24 05:46:23;;;;;;;48.38;14.88;;;;;;;;;;5053042;28;20044;-50
2022/11/24 05:48:52;;;;;;;46.80;15.13;;;;;;;;;;5035030;28;20042;-50
2022/11/24 05:51:19;;;;;;;43.63;14.07;;;;;;;;;;5035298;28;20053;-51
2022/11/24 05:53:50;;;;;;;46.33;15.63;;;;;;;;;;5039130;28;20073;-52
2022/11/24 05:56:17;;;;;;;39.17;14.45;;;;;;;;;;5046125;28;20077;-50
2022/11/24 05:58:44;;;;;;;47.78;15.23;;;;;;;;;;5048190;28;20059;-52
2022/11/24 06:01:12;;;;;;;46.40;15.73;;;;;;;;;;5037284;28;20458;-51
2022/11/24 06:03:38;;;;;;;45.80;16.13;;;;;;;;;;5041314;28;20049;-50
2022/11/24 06:06:06;;;;;;;39.42;14.60;;;;;;;;;;5041227;28;20046;-52
2022/11/24 06:08:35;;;;;;;42.85;14.68;;;;;;;;;;5046203;28;20053;-52
2022/11/24 06:11:15;;;;;;;48.75;16.45;;;;;;;;;;5042644;28;20087;-51
2022/11/24 06:13:44;;;;;;;43.00;16.67;;;;;;;;;;5039909;28;20531;-51
2022/11/24 06:16:15;;;;;;;48.42;16.02;;;;;;;;;;5041785;28;20101;-52
2022/11/24 06:18:42;;;;;;;55.47;17.83;;;;;;;;;;5048330;28;20106;-52
2022/11/24 06:21:09;;;;;;;48.45;17.95;;;;;;;;;;5047811;28;20514;-52
2022/11/24 06:23:35;;;;;;;49.60;15.55;;;;;;;;;;5034505;28;20050;-53
2022/11/24 06:26:04;;;;;;;55.40;15.93;;;;;;;;;;5047393;28;20049;-52
2022/11/24 06:28:36;;;;;;;56.35;17.60;;;;;;;;;;5040417;28;20423;-52
2022/11/24 06:31:06;;;;;;;48.65;17.00;;;;;;;;;;5041174;28;20529;-50
2022/11/24 06:33:34;;;;;;;61.25;20.15;;;;;;;;;;5040917;28;20038;-52
2022/11/24 06:36:03;;;;;;;58.92;18.20;;;;;;;;;;5041594;28;20052;-50
2022/11/24 06:38:33;;;;;;;53.28;18.90;;;;;;;;;;5039972;28;20045;-50
2022/11/24 06:41:00;;;;;;;59.22;17.02;;;;;;;;;;5054098;28;20056;-49
2022/11/24 06:43:29;;;;;;;58.63;19.20;;;;;;;;;;5040216;28;20068;-52
2022/11/24 06:46:00;;;;;;;77.07;20.52;;;;;;;;;;5052197;28;20092;-50
2022/11/24 06:48:26;;;;;;;53.35;16.42;;;;;;;;;;5047106;28;20065;-52
2022/11/24 06:50:58;;;;;;;60.13;17.55;;;;;;;;;;5033820;28;20348;-52
2022/11/24 06:53:26;;;;;;;59.63;16.63;;;;;;;;;;5043028;28;20044;-50
2022/11/24 06:55:52;;;;;;;45.95;15.73;;;;;;;;;;5039874;28;20049;-51
2022/11/24 06:58:19;;;;;;;58.47;17.15;;;;;;;;;;5048595;28;20083;-50
2022/11/24 07:00:50;;;;;;;67.55;20.15;;;;;;;;;;5034668;28;20046;-49
2022/11/24 07:03:18;;;;;;;63.50;19.80;;;;;;;;;;5044940;28;20126;-50
2022/11/24 07:05:48;;;;;;;53.63;17.20;;;;;;;;;;5046490;28;20057;-52
2022/11/24 07:08:16;;;;;;;64.05;17.88;;;;;;;;;;5039409;28;20067;-51
2022/11/24 07:10:44;;;;;;;66.82;19.90;;;;;;;;;;5033372;28;20077;-50
2022/11/24 07:13:11;;;;;;;71.85;20.55;;;;;;;;;;5044414;28;20053;-50
2022/11/24 07:15:42;;;;;;;96.40;22.65;;;;;;;;;;5046394;28;20060;-50
2022/11/24 07:18:09;;;;;;;72.68;20.27;;;;;;;;;;5013498;28;20048;-50
2022/11/24 07:20:37;;;;;;;72.55;21.15;;;;;;;;;;5052706;28;20049;-49
2022/11/24 07:23:05;;;;;;;91.10;22.60;;;;;;;;;;5051935;28;20087;-49
2022/11/24 07:25:37;;;;;;;80.60;23.45;;;;;;;;;;5043149;28;20085;-53
2022/11/24 07:28:05;;;;;;;88.60;23.45;;;;;;;;;;5047695;28;20299;-50
2022/11/24 07:30:32;;;;;;;87.70;23.42;;;;;;;;;;5052398;28;20526;-50
2022/11/24 07:32:59;;;;;;;75.28;22.05;;;;;;;;;;5041815;28;20468;-50
2022/11/24 07:35:25;;;;;;;94.03;23.98;;;;;;;;;;5052312;28;20048;-50
2022/11/24 07:37:53;;;;;;;80.82;21.42;;;;;;;;;;5051575;28;20051;-49
2022/11/24 07:40:20;;;;;;;81.93;19.40;;;;;;;;;;5050518;28;20052;-50
2022/11/24 07:42:47;;;;;;;82.25;21.80;;;;;;;;;;5037150;28;20045;-49
2022/11/24 07:45:13;;;;;;;71.40;20.60;;;;;;;;;;5043141;28;20049;-49
2022/11/24 07:47:40;;;;;;;82.05;21.75;;;;;;;;;;5039744;28;20478;-49
2022/11/24 07:50:09;;;;;;;75.40;20.67;;;;;;;;;;5038068;28;20060;-49
2022/11/24 07:52:36;;;;;;;70.68;20.33;;;;;;;;;;5043545;28;20056;-50
2022/11/24 07:55:02;;;;;;;81.07;21.73;;;;;;;;;;5049279;28;20056;-49
2022/11/24 07:57:30;;;;;;;61.50;19.98;;;;;;;;;;5040636;28;20053;-47
2022/11/24 07:59:59;;;;;;;88.57;20.55;;;;;;;;;;5047237;28;20049;-48
2022/11/24 08:02:25;;;;;;;69.85;20.70;;;;;;;;;;5035861;28;20080;-48
2022/11/24 08:04:52;;;;;;;56.97;17.58;;;;;;;;;;5048506;28;20049;-50
2022/11/24 08:07:19;;;;;;;62.70;18.55;;;;;;;;;;5045407;28;20063;-49
2022/11/24 08:09:46;;;;;;;61.30;18.70;;;;;;;;;;5048354;28;20049;-49
2022/11/24 08:12:12;;;;;;;60.47;18.33;;;;;;;;;;5049820;28;20049;-51
2022/11/24 08:14:38;;;;;;;67.10;19.15;;;;;;;;;;5048990;28;20401;-52
2022/11/24 08:17:06;;;;;;;62.00;17.70;;;;;;;;;;5039717;28;20075;-53
2022/11/24 08:19:33;;;;;;;72.32;19.77;;;;;;;;;;5049238;28;20053;-49
2022/11/24 08:21:59;;;;;;;74.97;19.90;;;;;;;;;;5045036;28;20064;-53
2022/11/24 08:24:30;;;;;;;68.80;20.20;;;;;;;;;;5051202;28;20053;-52
2022/11/24 08:26:57;;;;;;;85.15;21.85;;;;;;;;;;5038134;28;20056;-50
2022/11/24 08:29:23;;;;;;;78.65;21.05;;;;;;;;;;5046721;28;20071;-49
2022/11/24 08:31:49;;;;;;;74.40;19.73;;;;;;;;;;5045532;28;20053;-51
2022/11/24 08:34:17;;;;;;;78.38;21.67;;;;;;;;;;5038047;28;20060;-49
2022/11/24 08:36:43;;;;;;;80.50;21.88;;;;;;;;;;5048158;28;20446;-49
2022/11/24 08:39:10;;;;;;;107.07;23.40;;;;;;;;;;5043423;28;20049;-51
2022/11/24 08:41:38;;;;;;;77.20;22.15;;;;;;;;;;5043500;28;20138;-50
2022/11/24 08:44:04;;;;;;;86.15;22.17;;;;;;;;;;5044619;28;20049;-51
2022/11/24 08:46:30;;;;;;;77.20;22.00;;;;;;;;;;5048587;28;20453;-51
2022/11/24 08:49:01;;;;;;;67.05;19.33;;;;;;;;;;5050440;28;20044;-53
2022/11/24 08:51:33;;;;;;;58.05;18.17;;;;;;;;;;5044539;28;20049;-54
2022/11/24 08:54:01;;;;;;;60.55;18.20;;;;;;;;;;5044871;28;20052;-53
2022/11/24 08:56:29;;;;;;;54.85;16.80;;;;;;;;;;5050473;28;20071;-50
2022/11/24 08:58:55;;;;;;;56.85;18.23;;;;;;;;;;5043959;28;20064;-51
2022/11/24 09:01:22;;;;;;;56.17;17.95;;;;;;;;;;5037504;28;20061;-51
2022/11/24 09:03:49;;;;;;;53.40;16.70;;;;;;;;;;5048376;28;20532;-50
2022/11/24 09:06:16;;;;;;;75.55;21.60;;;;;;;;;;5045723;28;20061;-52
2022/11/24 09:08:46;;;;;;;62.60;18.65;;;;;;;;;;5041582;28;20108;-50
2022/11/24 09:11:13;;;;;;;69.88;21.77;;;;;;;;;;5039824;28;20045;-51
2022/11/24 09:13:44;;;;;;;55.85;18.13;;;;;;;;;;5038982;28;20058;-50
2022/11/24 09:16:12;;;;;;;63.50;16.70;;;;;;;;;;5040275;28;20061;-51
2022/11/24 09:18:39;;;;;;;63.95;18.63;;;;;;;;;;5047623;28;20060;-50
2022/11/24 09:21:06;;;;;;;53.72;18.55;;;;;;;;;;5044085;28;20061;-49
2022/11/24 09:23:32;;;;;;;66.85;20.80;;;;;;;;;;5048658;28;20057;-51
2022/11/24 09:26:03;;;;;;;69.35;19.90;;;;;;;;;;5049336;28;20168;-51
2022/11/24 09:28:29;;;;;;;66.25;19.33;;;;;;;;;;5045011;28;20488;-51
2022/11/24 09:30:59;;;;;;;59.70;20.08;;;;;;;;;;5047388;28;20049;-50
2022/11/24 09:33:25;;;;;;;61.70;19.35;;;;;;;;;;5046139;28;20059;-51
2022/11/24 09:35:52;;;;;;;60.00;18.85;;;;;;;;;;5051204;28;20064;-52
2022/11/24 09:38:19;;;;;;;78.55;24.00;;;;;;;;;;5047480;28;20064;-51
2022/11/24 09:40:45;;;;;;;70.25;21.92;;;;;;;;;;5052986;28;20086;-49
2022/11/24 09:43:16;;;;;;;80.45;22.70;;;;;;;;;;5048982;28;20173;-49
2022/11/24 09:45:46;;;;;;;55.80;21.10;;;;;;;;;;5052762;28;20068;-49
2022/11/24 09:48:16;;;;;;;71.03;21.02;;;;;;;;;;5043476;28;20438;-49
2022/11/24 09:50:43;;;;;;;63.08;20.20;;;;;;;;;;5040538;28;20048;-49
2022/11/24 09:53:13;;;;;;;60.75;17.80;;;;;;;;;;5050107;28;20473;-50
2022/11/24 09:55:42;;;;;;;54.85;17.83;;;;;;;;;;5050867;28;20633;-50
2022/11/24 09:58:24;;;;;;;65.40;18.48;;;;;;;;;;5050042;28;20056;-50
2022/11/24 10:00:51;;;;;;;60.15;19.67;;;;;;;;;;5048169;28;20045;-51
2022/11/24 10:03:19;;;;;;;56.80;19.70;;;;;;;;;;5045875;28;20049;-50
2022/11/24 10:05:49;;;;;;;55.88;17.88;;;;;;;;;;5050157;28;20056;-50
2022/11/24 10:08:22;;;;;;;57.15;17.45;;;;;;;;;;5052811;28;20053;-52
2022/11/24 10:10:51;;;;;;;63.90;18.90;;;;;;;;;;5042986;28;20110;-50
2022/11/24 10:13:26;;;;;;;58.70;17.67;;;;;;;;;;5050506;28;20048;-52
2022/11/24 10:15:58;;;;;;;52.80;18.67;;;;;;;;;;5046983;28;20045;-53
2022/11/24 10:18:31;;;;;;;57.72;16.98;;;;;;;;;;5041619;28;20050;-50
2022/11/24 10:21:02;;;;;;;49.22;16.73;;;;;;;;;;5046693;28;20053;-52
2022/11/24 10:23:35;;;;;;;55.15;16.75;;;;;;;;;;5046086;28;20064;-50
2022/11/24 10:26:06;;;;;;;47.10;15.35;;;;;;;;;;5051866;28;20137;-49
2022/11/24 10:28:37;;;;;;;53.45;19.33;;;;;;;;;;5039109;28;20136;-54
2022/11/24 10:31:16;;;;;;;54.25;17.92;;;;;;;;;;5046605;28;20414;-52
2022/11/24 10:33:42;;;;;;;51.22;15.40;;;;;;;;;;5051815;28;20060;-52
2022/11/24 10:36:11;;;;;;;55.40;19.60;;;;;;;;;;5049832;28;20080;-50
2022/11/24 10:38:42;;;;;;;53.00;16.42;;;;;;;;;;5050132;28;20080;-50
2022/11/24 10:41:12;;;;;;;65.65;18.35;;;;;;;;;;5045790;28;20658;-51
2022/11/24 10:43:41;;;;;;;69.50;20.60;;;;;;;;;;5050117;28;20072;-51
2022/11/24 10:46:10;;;;;;;58.97;17.65;;;;;;;;;;5049739;28;20071;-49
2022/11/24 10:48:39;;;;;;;49.28;17.23;;;;;;;;;;5042247;28;20060;-50
2022/11/24 10:51:19;;;;;;;73.55;22.38;;;;;;;;;;5048337;28;20056;-50
2022/11/24 10:53:45;;;;;;;69.20;20.95;;;;;;;;;;5043024;28;20055;-51
2022/11/24 10:56:12;;;;;;;78.82;21.30;;;;;;;;;;5050012;28;20044;-52
2022/11/24 10:58:39;;;;;;;69.88;21.65;;;;;;;;;;5048784;28;20053;-53
2022/11/24 11:01:19;;;;;;;72.97;22.38;;;;;;;;;;5052123;28;20456;-52
2022/11/24 11:03:47;;;;;;;64.82;21.08;;;;;;;;;;5049829;28;20045;-50
2022/11/24 11:06:14;;;;;;;54.97;17.95;;;;;;;;;;5049175;28;20060;-50
2022/11/24 11:08:41;;;;;;;61.13;18.92;;;;;;;;;;5042871;28;20046;-53
2022/11/24 11:11:18;;;;;;;58.65;18.85;;;;;;;;;;5044867;28;20041;-48
2022/11/24 11:13:52;;;;;;;63.53;18.50;;;;;;;;;;5043713;28;20056;-49
2022/11/24 11:16:24;;;;;;;61.90;17.38;;;;;;;;;;5044340;28;20044;-49
2022/11/24 11:18:50;;;;;;;63.20;18.67;;;;;;;;;;5044497;28;20052;-48
2022/11/24 11:21:25;;;;;;;61.67;17.08;;;;;;;;;;5049930;28;20060;-50
2022/11/24 11:23:51;;;;;;;65.70;20.63;;;;;;;;;;5048868;28;20049;-49
2022/11/24 11:26:19;;;;;;;63.80;19.42;;;;;;;;;;5045693;28;20050;-51
2022/11/24 11:28:59;;;;;;;67.03;20.73;;;;;;;;;;5047332;28;20098;-48
2022/11/24 11:31:25;;;;;;;72.63;22.25;;;;;;;;;;5045257;28;20553;-49
2022/11/24 11:33:56;;;;;;;69.80;21.25;;;;;;;;;;5042732;28;20375;-49
2022/11/24 11:36:25;;;;;;;77.45;20.45;;;;;;;;;;5045644;28;20718;-49
2022/11/24 11:38:52;;;;;;;73.38;22.45;;;;;;;;;;5047733;28;20050;-50
2022/11/24 11:41:20;;;;;;;79.82;21.55;;;;;;;;;;5041478;28;20042;-49
2022/11/24 11:43:48;;;;;;;67.60;20.80;;;;;;;;;;5043849;28;20059;-49
2022/11/24 11:46:16;;;;;;;79.28;22.77;;;;;;;;;;5050264;28;20048;-47
2022/11/24 11:48:45;;;;;;;78.13;21.52;;;;;;;;;;5038246;28;20064;-48
2022/11/24 11:51:25;;;;;;;74.03;21.85;;;;;;;;;;5043336;28;20072;-49
2022/11/24 11:53:55;;;;;;;69.30;21.75;;;;;;;;;;5049247;28;20139;-51
2022/11/24 11:56:24;;;;;;;77.88;22.08;;;;;;;;;;5049391;28;20063;-50
2022/11/24 11:59:00;;;;;;;73.28;20.42;;;;;;;;;;5042645;28;20466;-50
2022/11/24 12:01:37;;;;;;;81.97;21.27;;;;;;;;;;5048707;28;20057;-50
2022/11/24 12:04:12;;;;;;;77.88;23.40;;;;;;;;;;5044688;28;20049;-49
2022/11/24 12:06:50;;;;;;;69.05;20.95;;;;;;;;;;5043340;28;20048;-50
2022/11/24 12:09:23;;;;;;;66.05;21.17;;;;;;;;;;5041407;28;20041;-50
2022/11/24 12:12:01;;;;;;;62.65;19.35;;;;;;;;;;5044093;28;20064;-50
2022/11/24 12:14:31;;;;;;;78.93;22.80;;;;;;;;;;5039061;28;20045;-51
2022/11/24 12:17:06;;;;;;;80.25;22.23;;;;;;;;;;5046868;28;20076;-51
2022/11/24 12:19:49;;;;;;;74.00;22.58;;;;;;;;;;5043460;28;20063;-50
2022/11/24 12:22:20;;;;;;;77.93;21.20;;;;;;;;;;5036903;28;20049;-53
2022/11/24 12:24:50;;;;;;;65.05;19.88;;;;;;;;;;5033966;28;20480;-50
2022/11/24 12:27:18;;;;;;;69.53;20.00;;;;;;;;;;5045448;28;20152;-50
2022/11/24 12:30:01;;;;;;;66.93;20.45;;;;;;;;;;5047453;28;20049;-50
2022/11/24 12:32:36;;;;;;;71.25;21.08;;;;;;;;;;5037410;28;20049;-51
2022/11/24 12:35:08;;;;;;;78.65;23.70;;;;;;;;;;5039878;28;20059;-51
2022/11/24 12:37:46;;;;;;;73.78;21.52;;;;;;;;;;5050588;28;20458;-51
2022/11/24 12:40:22;;;;;;;73.13;23.67;;;;;;;;;;5049588;28;20094;-52
2022/11/24 12:42:57;;;;;;;64.15;21.17;;;;;;;;;;5052007;28;20049;-51
2022/11/24 12:45:33;;;;;;;80.07;22.87;;;;;;;;;;5044737;28;20478;-51
2022/11/24 12:48:18;;;;;;;80.95;23.27;;;;;;;;;;5039583;28;20766;-52
2022/11/24 12:50:49;;;;;;;74.60;23.05;;;;;;;;;;5044233;28;20148;-53
2022/11/24 12:53:18;;;;;;;83.55;27.50;;;;;;;;;;5042360;28;20061;-50
2022/11/24 12:55:46;;;;;;;81.35;23.25;;;;;;;;;;5050825;28;20045;-51
2022/11/24 12:58:18;;;;;;;84.55;23.98;;;;;;;;;;5046480;28;20045;-49
2022/11/24 13:00:53;;;;;;;77.18;21.77;;;;;;;;;;5050448;28;20041;-52
2022/11/24 13:03:31;;;;;;;74.32;21.27;;;;;;;;;;5048436;28;20053;-51
2022/11/24 13:06:00;;;;;;;76.93;22.85;;;;;;;;;;5050523;28;20084;-51
2022/11/24 13:08:28;;;;;;;72.15;22.52;;;;;;;;;;5044104;28;20089;-52
2022/11/24 13:10:54;;;;;;;66.45;21.58;;;;;;;;;;5043816;28;20044;-51
2022/11/24 13:13:21;;;;;;;77.43;23.48;;;;;;;;;;5036836;28;20385;-50
2022/11/24 13:16:08;;;;;;;79.80;24.10;;;;;;;;;;5048671;28;20057;-52
2022/11/24 13:18:45;;;;;;;81.15;23.85;;;;;;;;;;5047915;28;20127;-53
2022/11/24 13:21:30;;;;;;;74.72;22.35;;;;;;;;;;5046188;28;20135;-49
2022/11/24 13:23:58;;;;;;;84.07;24.05;;;;;;;;;;5050237;28;20057;-50
2022/11/24 13:26:28;;;;;;;73.68;22.13;;;;;;;;;;5045811;28;20057;-49
2022/11/24 13:28:59;;;;;;;70.22;21.80;;;;;;;;;;5044041;28;20111;-50
2022/11/24 13:31:26;;;;;;;74.50;21.98;;;;;;;;;;5042370;28;20221;-50
2022/11/24 13:33:52;;;;;;;89.60;23.48;;;;;;;;;;5045751;28;20052;-48
2022/11/24 13:36:29;;;;;;;81.32;22.17;;;;;;;;;;5051997;28;20044;-49
2022/11/24 13:38:55;;;;;;;85.40;25.38;;;;;;;;;;5042206;28;20406;-50
2022/11/24 13:41:36;;;;;;;85.05;24.85;;;;;;;;;;5050548;28;20060;-49
2022/11/24 13:44:23;;;;;;;87.80;23.77;;;;;;;;;;5048821;28;20048;-50
2022/11/24 13:46:56;;;;;;;81.97;24.25;;;;;;;;;;5045441;28;20385;-50
2022/11/24 13:49:22;;;;;;;88.45;24.77;;;;;;;;;;5046159;28;20080;-51
2022/11/24 13:51:53;;;;;;;78.22;22.58;;;;;;;;;;5047627;28;20052;-50
2022/11/24 13:54:20;;;;;;;81.15;24.35;;;;;;;;;;5047239;28;20136;-49
2022/11/24 13:56:46;;;;;;;81.15;24.02;;;;;;;;;;5053563;28;20045;-49
2022/11/24 13:59:16;;;;;;;83.70;24.60;;;;;;;;;;5043220;28;20041;-51
2022/11/24 14:01:45;;;;;;;83.55;24.48;;;;;;;;;;5046979;28;20041;-52
2022/11/24 14:04:18;;;;;;;84.07;23.55;;;;;;;;;;5042507;28;20053;-50
2022/11/24 14:06:46;;;;;;;88.10;22.67;;;;;;;;;;5043667;28;20049;-49
2022/11/24 14:09:24;;;;;;;80.15;23.63;;;;;;;;;;5034617;28;20053;-49
2022/11/24 14:11:57;;;;;;;72.35;22.58;;;;;;;;;;5036140;28;20049;-49
2022/11/24 14:14:23;;;;;;;88.47;25.15;;;;;;;;;;5049006;28;20080;-49
2022/11/24 14:17:07;;;;;;;92.40;22.33;;;;;;;;;;5043902;28;20521;-48
2022/11/24 14:19:36;;;;;;;79.75;20.52;;;;;;;;;;5046751;28;20593;-48
2022/11/24 14:22:04;;;;;;;78.28;23.20;;;;;;;;;;5044868;28;20049;-49
2022/11/24 14:24:31;;;;;;;82.25;22.23;;;;;;;;;;5049627;28;20045;-48
2022/11/24 14:26:59;;;;;;;64.82;18.77;;;;;;;;;;5045139;28;21032;-50
2022/11/24 14:29:31;;;;;;;70.18;21.45;;;;;;;;;;5044528;28;20067;-50
2022/11/24 14:31:59;;;;;;;66.75;19.90;;;;;;;;;;5050639;28;20055;-47